sensor_id;sensor_type;location;lat;lon;timestamp;temperature;humidity
76936;DHT22;65881;52.438;16.744;2023-02-27T00:01:13;-1.50;81.00
76936;DHT22;65881;52.438;16.744;2023-02-27T00:03:39;-1.60;81.30
76936;DHT22;65881;52.438;16.744;2023-02-27T00:06:05;-1.60;81.60
76936;DHT22;65881;52.438;16.744;2023-02-27T00:08:30;-1.70;81.80
76936;DHT22;65881;52.438;16.744;2023-02-27T00:10:57;-1.70;81.90
76936;DHT22;65881;52.438;16.744;2023-02-27T00:13:23;-1.80;82.00
76936;DHT22;65881;52.438;16.744;2023-02-27T00:15:48;-1.80;82.40
76936;DHT22;65881;52.438;16.744;2023-02-27T00:18:15;-1.80;82.30
76936;DHT22;65881;52.438;16.744;2023-02-27T00:20:41;-1.90;82.40
76936;DHT22;65881;52.438;16.744;2023-02-27T00:23:08;-1.90;82.60
76936;DHT22;65881;52.438;16.744;2023-02-27T00:25:35;-1.90;82.80
76936;DHT22;65881;52.438;16.744;2023-02-27T00:28:01;-2.00;83.00
76936;DHT22;65881;52.438;16.744;2023-02-27T00:30:28;-2.00;83.30
76936;DHT22;65881;52.438;16.744;2023-02-27T00:32:54;-2.10;83.00
76936;DHT22;65881;52.438;16.744;2023-02-27T00:35:20;-2.00;83.10
76936;DHT22;65881;52.438;16.744;2023-02-27T00:37:50;-2.00;83.00
76936;DHT22;65881;52.438;16.744;2023-02-27T00:40:17;-2.00;82.90
76936;DHT22;65881;52.438;16.744;2023-02-27T00:42:43;-2.00;83.00
76936;DHT22;65881;52.438;16.744;2023-02-27T00:45:10;-2.00;82.90
76936;DHT22;65881;52.438;16.744;2023-02-27T00:47:36;-2.00;82.80
76936;DHT22;65881;52.438;16.744;2023-02-27T00:50:02;-2.00;82.80
76936;DHT22;65881;52.438;16.744;2023-02-27T00:52:28;-2.00;83.00
76936;DHT22;65881;52.438;16.744;2023-02-27T00:54:54;-2.10;83.00
76936;DHT22;65881;52.438;16.744;2023-02-27T00:57:20;-2.10;83.20
76936;DHT22;65881;52.438;16.744;2023-02-27T00:59:46;-2.10;83.20
76936;DHT22;65881;52.438;16.744;2023-02-27T01:02:12;-2.10;83.30
76936;DHT22;65881;52.438;16.744;2023-02-27T01:04:37;-2.10;83.50
76936;DHT22;65881;52.438;16.744;2023-02-27T01:07:03;-2.10;83.50
76936;DHT22;65881;52.438;16.744;2023-02-27T01:09:29;-2.10;83.50
76936;DHT22;65881;52.438;16.744;2023-02-27T01:11:55;-2.10;83.80
76936;DHT22;65881;52.438;16.744;2023-02-27T01:14:22;-2.10;83.60
76936;DHT22;65881;52.438;16.744;2023-02-27T01:16:48;-2.10;83.90
76936;DHT22;65881;52.438;16.744;2023-02-27T01:19:15;-2.10;84.00
76936;DHT22;65881;52.438;16.744;2023-02-27T01:21:41;-2.10;84.00
76936;DHT22;65881;52.438;16.744;2023-02-27T01:24:08;-2.10;84.10
76936;DHT22;65881;52.438;16.744;2023-02-27T01:26:34;-2.10;84.20
76936;DHT22;65881;52.438;16.744;2023-02-27T01:29:00;-2.10;84.20
76936;DHT22;65881;52.438;16.744;2023-02-27T01:31:25;-2.10;84.40
76936;DHT22;65881;52.438;16.744;2023-02-27T01:33:51;-2.10;84.60
76936;DHT22;65881;52.438;16.744;2023-02-27T01:36:17;-2.20;84.70
76936;DHT22;65881;52.438;16.744;2023-02-27T01:38:42;-2.20;84.70
76936;DHT22;65881;52.438;16.744;2023-02-27T01:41:08;-2.20;84.90
76936;DHT22;65881;52.438;16.744;2023-02-27T01:43:53;-2.20;85.10
76936;DHT22;65881;52.438;16.744;2023-02-27T01:46:19;-2.30;85.10
76936;DHT22;65881;52.438;16.744;2023-02-27T01:48:45;-2.20;85.20
76936;DHT22;65881;52.438;16.744;2023-02-27T01:51:15;-2.30;85.40
76936;DHT22;65881;52.438;16.744;2023-02-27T01:53:46;-2.30;85.50
76936;DHT22;65881;52.438;16.744;2023-02-27T01:56:27;-2.40;85.60
76936;DHT22;65881;52.438;16.744;2023-02-27T01:58:58;-2.40;85.90
76936;DHT22;65881;52.438;16.744;2023-02-27T02:01:25;-2.50;86.30
76936;DHT22;65881;52.438;16.744;2023-02-27T02:06:43;-2.60;86.90
76936;DHT22;65881;52.438;16.744;2023-02-27T02:09:10;-2.60;87.00
76936;DHT22;65881;52.438;16.744;2023-02-27T02:11:37;-2.70;87.20
76936;DHT22;65881;52.438;16.744;2023-02-27T02:14:03;-2.70;87.50
76936;DHT22;65881;52.438;16.744;2023-02-27T02:42:44;-3.10;89.30
76936;DHT22;65881;52.438;16.744;2023-02-27T02:45:21;-3.10;89.70
76936;DHT22;65881;52.438;16.744;2023-02-27T02:50:35;-3.10;89.80
76936;DHT22;65881;52.438;16.744;2023-02-27T02:55:35;-3.10;90.40
76936;DHT22;65881;52.438;16.744;2023-02-27T03:00:36;-3.10;90.70
76936;DHT22;65881;52.438;16.744;2023-02-27T03:03:38;-3.10;90.70
76936;DHT22;65881;52.438;16.744;2023-02-27T03:06:10;-3.10;90.50
76936;DHT22;65881;52.438;16.744;2023-02-27T03:08:46;-3.10;90.70
76936;DHT22;65881;52.438;16.744;2023-02-27T03:11:13;-3.10;90.80
76936;DHT22;65881;52.438;16.744;2023-02-27T03:13:59;-3.20;91.10
76936;DHT22;65881;52.438;16.744;2023-02-27T03:16:32;-3.20;91.10
76936;DHT22;65881;52.438;16.744;2023-02-27T03:21:58;-3.20;91.40
76936;DHT22;65881;52.438;16.744;2023-02-27T03:24:54;-3.20;91.50
76936;DHT22;65881;52.438;16.744;2023-02-27T03:27:23;-3.20;91.50
76936;DHT22;65881;52.438;16.744;2023-02-27T03:35:20;-3.20;92.20
76936;DHT22;65881;52.438;16.744;2023-02-27T03:38:32;-3.20;92.30
76936;DHT22;65881;52.438;16.744;2023-02-27T03:44:28;-3.20;92.70
76936;DHT22;65881;52.438;16.744;2023-02-27T03:46:56;-3.20;92.70
76936;DHT22;65881;52.438;16.744;2023-02-27T03:49:23;-3.20;92.80
76936;DHT22;65881;52.438;16.744;2023-02-27T03:51:49;-3.20;92.90
76936;DHT22;65881;52.438;16.744;2023-02-27T03:54:36;-3.20;92.80
76936;DHT22;65881;52.438;16.744;2023-02-27T03:57:05;-3.20;93.00
76936;DHT22;65881;52.438;16.744;2023-02-27T03:59:32;-3.10;92.90
76936;DHT22;65881;52.438;16.744;2023-02-27T04:01:59;-3.10;93.00
76936;DHT22;65881;52.438;16.744;2023-02-27T04:04:28;-3.10;93.00
76936;DHT22;65881;52.438;16.744;2023-02-27T04:15:27;-2.90;92.70
76936;DHT22;65881;52.438;16.744;2023-02-27T04:23:40;-2.80;92.80
76936;DHT22;65881;52.438;16.744;2023-02-27T04:31:58;-2.70;92.90
76936;DHT22;65881;52.438;16.744;2023-02-27T04:34:38;-2.60;93.00
76936;DHT22;65881;52.438;16.744;2023-02-27T04:37:26;-2.60;93.00
76936;DHT22;65881;52.438;16.744;2023-02-27T04:40:00;-2.70;93.00
76936;DHT22;65881;52.438;16.744;2023-02-27T04:42:33;-2.70;93.10
76936;DHT22;65881;52.438;16.744;2023-02-27T04:45:03;-2.60;93.40
76936;DHT22;65881;52.438;16.744;2023-02-27T04:47:37;-2.60;93.50
76936;DHT22;65881;52.438;16.744;2023-02-27T04:50:17;-2.60;93.50
76936;DHT22;65881;52.438;16.744;2023-02-27T04:52:56;-2.60;93.70
76936;DHT22;65881;52.438;16.744;2023-02-27T04:55:27;-2.60;93.70
76936;DHT22;65881;52.438;16.744;2023-02-27T04:58:09;-2.60;93.60
76936;DHT22;65881;52.438;16.744;2023-02-27T05:00:36;-2.50;93.60
76936;DHT22;65881;52.438;16.744;2023-02-27T05:03:10;-2.50;93.70
76936;DHT22;65881;52.438;16.744;2023-02-27T05:05:40;-2.50;93.70
76936;DHT22;65881;52.438;16.744;2023-02-27T05:08:13;-2.50;93.60
76936;DHT22;65881;52.438;16.744;2023-02-27T05:11:00;-2.50;93.50
76936;DHT22;65881;52.438;16.744;2023-02-27T05:13:39;-2.50;93.60
76936;DHT22;65881;52.438;16.744;2023-02-27T05:18:36;-2.40;94.00
76936;DHT22;65881;52.438;16.744;2023-02-27T05:21:17;-2.40;93.90
76936;DHT22;65881;52.438;16.744;2023-02-27T05:23:57;-2.40;93.90
76936;DHT22;65881;52.438;16.744;2023-02-27T05:29:04;-2.50;94.30
76936;DHT22;65881;52.438;16.744;2023-02-27T05:31:48;-2.40;94.40
76936;DHT22;65881;52.438;16.744;2023-02-27T05:34:26;-2.40;94.50
76936;DHT22;65881;52.438;16.744;2023-02-27T05:37:00;-2.40;94.40
76936;DHT22;65881;52.438;16.744;2023-02-27T05:39:29;-2.40;94.60
76936;DHT22;65881;52.438;16.744;2023-02-27T05:42:10;-2.40;94.60
76936;DHT22;65881;52.438;16.744;2023-02-27T05:44:43;-2.40;94.70
76936;DHT22;65881;52.438;16.744;2023-02-27T05:47:24;-2.30;95.00
76936;DHT22;65881;52.438;16.744;2023-02-27T05:49:53;-2.30;94.70
76936;DHT22;65881;52.438;16.744;2023-02-27T05:52:24;-2.30;94.70
76936;DHT22;65881;52.438;16.744;2023-02-27T05:55:16;-2.30;95.00
76936;DHT22;65881;52.438;16.744;2023-02-27T05:57:55;-2.30;95.00
76936;DHT22;65881;52.438;16.744;2023-02-27T06:00:42;-2.30;95.00
76936;DHT22;65881;52.438;16.744;2023-02-27T06:03:12;-2.30;94.90
76936;DHT22;65881;52.438;16.744;2023-02-27T06:05:40;-2.20;95.20
76936;DHT22;65881;52.438;16.744;2023-02-27T06:08:08;-2.20;95.20
76936;DHT22;65881;52.438;16.744;2023-02-27T06:10:34;-2.10;95.50
76936;DHT22;65881;52.438;16.744;2023-02-27T06:13:04;-2.10;95.30
76936;DHT22;65881;52.438;16.744;2023-02-27T06:15:30;-2.10;94.70
76936;DHT22;65881;52.438;16.744;2023-02-27T06:18:08;-2.10;94.80
76936;DHT22;65881;52.438;16.744;2023-02-27T06:20:41;-2.10;95.00
76936;DHT22;65881;52.438;16.744;2023-02-27T06:23:10;-2.10;94.90
76936;DHT22;65881;52.438;16.744;2023-02-27T06:25:58;-2.10;95.00
76936;DHT22;65881;52.438;16.744;2023-02-27T06:28:24;-2.10;95.00
76936;DHT22;65881;52.438;16.744;2023-02-27T06:30:58;-2.10;95.20
76936;DHT22;65881;52.438;16.744;2023-02-27T06:33:24;-2.00;95.20
76936;DHT22;65881;52.438;16.744;2023-02-27T06:35:50;-2.00;95.20
76936;DHT22;65881;52.438;16.744;2023-02-27T06:38:19;-1.90;95.20
76936;DHT22;65881;52.438;16.744;2023-02-27T06:40:58;-1.90;95.30
76936;DHT22;65881;52.438;16.744;2023-02-27T06:43:45;-1.90;95.30
76936;DHT22;65881;52.438;16.744;2023-02-27T06:46:12;-1.80;95.30
76936;DHT22;65881;52.438;16.744;2023-02-27T06:48:39;-1.80;95.20
76936;DHT22;65881;52.438;16.744;2023-02-27T06:51:08;-1.80;95.20
76936;DHT22;65881;52.438;16.744;2023-02-27T06:53:45;-1.70;95.10
76936;DHT22;65881;52.438;16.744;2023-02-27T06:56:11;-1.70;94.70
76936;DHT22;65881;52.438;16.744;2023-02-27T06:58:38;-1.70;94.70
76936;DHT22;65881;52.438;16.744;2023-02-27T07:01:04;-1.70;94.80
76936;DHT22;65881;52.438;16.744;2023-02-27T07:03:30;-1.60;94.80
76936;DHT22;65881;52.438;16.744;2023-02-27T07:05:59;-1.60;94.60
76936;DHT22;65881;52.438;16.744;2023-02-27T07:08:28;-1.50;94.30
76936;DHT22;65881;52.438;16.744;2023-02-27T07:11:01;-1.50;94.40
76936;DHT22;65881;52.438;16.744;2023-02-27T07:13:37;-1.50;93.80
76936;DHT22;65881;52.438;16.744;2023-02-27T07:16:03;-1.50;93.80
76936;DHT22;65881;52.438;16.744;2023-02-27T07:18:29;-1.50;93.90
76936;DHT22;65881;52.438;16.744;2023-02-27T07:21:04;-1.30;93.70
76936;DHT22;65881;52.438;16.744;2023-02-27T07:23:35;-1.30;93.70
76936;DHT22;65881;52.438;16.744;2023-02-27T07:26:05;-1.30;93.70
76936;DHT22;65881;52.438;16.744;2023-02-27T07:28:32;-1.30;93.00
76936;DHT22;65881;52.438;16.744;2023-02-27T07:30:59;-1.30;92.90
76936;DHT22;65881;52.438;16.744;2023-02-27T07:33:35;-1.20;93.20
76936;DHT22;65881;52.438;16.744;2023-02-27T07:36:23;-1.10;93.00
76936;DHT22;65881;52.438;16.744;2023-02-27T07:38:49;-1.10;93.00
76936;DHT22;65881;52.438;16.744;2023-02-27T07:41:14;-1.10;93.00
76936;DHT22;65881;52.438;16.744;2023-02-27T07:43:42;-1.10;93.10
76936;DHT22;65881;52.438;16.744;2023-02-27T07:46:11;-1.10;92.50
76936;DHT22;65881;52.438;16.744;2023-02-27T07:48:37;-1.10;92.60
76936;DHT22;65881;52.438;16.744;2023-02-27T07:51:04;-1.00;92.80
76936;DHT22;65881;52.438;16.744;2023-02-27T07:53:29;-1.00;93.00
76936;DHT22;65881;52.438;16.744;2023-02-27T07:55:55;-0.90;93.00
76936;DHT22;65881;52.438;16.744;2023-02-27T07:58:21;-0.80;92.40
76936;DHT22;65881;52.438;16.744;2023-02-27T08:00:46;-0.70;92.00
76936;DHT22;65881;52.438;16.744;2023-02-27T08:03:12;-0.80;91.70
76936;DHT22;65881;52.438;16.744;2023-02-27T08:05:38;-0.70;92.00
76936;DHT22;65881;52.438;16.744;2023-02-27T08:08:04;-0.70;92.30
76936;DHT22;65881;52.438;16.744;2023-02-27T08:10:30;-0.70;91.80
76936;DHT22;65881;52.438;16.744;2023-02-27T08:12:55;-0.70;91.80
76936;DHT22;65881;52.438;16.744;2023-02-27T08:15:21;-0.70;91.90
76936;DHT22;65881;52.438;16.744;2023-02-27T08:17:47;-0.70;91.50
76936;DHT22;65881;52.438;16.744;2023-02-27T08:20:13;-0.70;91.90
76936;DHT22;65881;52.438;16.744;2023-02-27T08:22:41;-0.60;91.40
76936;DHT22;65881;52.438;16.744;2023-02-27T08:25:08;-0.50;91.20
76936;DHT22;65881;52.438;16.744;2023-02-27T08:27:36;-0.50;91.00
76936;DHT22;65881;52.438;16.744;2023-02-27T08:30:04;-0.40;90.60
76936;DHT22;65881;52.438;16.744;2023-02-27T08:32:30;-0.40;90.40
76936;DHT22;65881;52.438;16.744;2023-02-27T08:34:59;-0.30;90.20
76936;DHT22;65881;52.438;16.744;2023-02-27T08:37:27;-0.30;90.10
76936;DHT22;65881;52.438;16.744;2023-02-27T08:39:53;-0.20;90.00
76936;DHT22;65881;52.438;16.744;2023-02-27T08:42:18;-0.30;89.60
76936;DHT22;65881;52.438;16.744;2023-02-27T08:44:44;-0.30;89.60
76936;DHT22;65881;52.438;16.744;2023-02-27T08:47:12;-0.30;89.80
76936;DHT22;65881;52.438;16.744;2023-02-27T08:49:38;-0.20;89.70
76936;DHT22;65881;52.438;16.744;2023-02-27T08:52:03;-0.10;89.60
76936;DHT22;65881;52.438;16.744;2023-02-27T08:54:33;-0.10;89.00
76936;DHT22;65881;52.438;16.744;2023-02-27T08:56:58;0.00;89.10
76936;DHT22;65881;52.438;16.744;2023-02-27T08:59:24;-0.10;88.40
76936;DHT22;65881;52.438;16.744;2023-02-27T09:01:50;-0.10;88.70
76936;DHT22;65881;52.438;16.744;2023-02-27T09:04:15;0.00;88.40
76936;DHT22;65881;52.438;16.744;2023-02-27T09:06:41;0.00;88.30
76936;DHT22;65881;52.438;16.744;2023-02-27T09:09:07;0.00;87.60
76936;DHT22;65881;52.438;16.744;2023-02-27T09:11:33;0.10;87.30
76936;DHT22;65881;52.438;16.744;2023-02-27T09:13:59;0.20;87.30
76936;DHT22;65881;52.438;16.744;2023-02-27T09:16:25;0.30;87.00
76936;DHT22;65881;52.438;16.744;2023-02-27T09:18:51;0.40;87.10
76936;DHT22;65881;52.438;16.744;2023-02-27T09:21:18;0.50;86.60
76936;DHT22;65881;52.438;16.744;2023-02-27T09:23:45;0.50;86.20
76936;DHT22;65881;52.438;16.744;2023-02-27T09:26:10;0.60;85.90
76936;DHT22;65881;52.438;16.744;2023-02-27T09:28:36;0.50;85.70
76936;DHT22;65881;52.438;16.744;2023-02-27T09:31:06;0.60;86.30
76936;DHT22;65881;52.438;16.744;2023-02-27T09:33:33;0.60;85.80
76936;DHT22;65881;52.438;16.744;2023-02-27T09:35:59;0.60;85.30
76936;DHT22;65881;52.438;16.744;2023-02-27T09:38:25;0.70;85.60
76936;DHT22;65881;52.438;16.744;2023-02-27T09:40:52;0.80;85.70
76936;DHT22;65881;52.438;16.744;2023-02-27T09:43:22;0.80;85.40
76936;DHT22;65881;52.438;16.744;2023-02-27T09:45:53;0.80;85.10
76936;DHT22;65881;52.438;16.744;2023-02-27T09:48:38;1.00;84.10
76936;DHT22;65881;52.438;16.744;2023-02-27T09:51:06;1.00;83.30
76936;DHT22;65881;52.438;16.744;2023-02-27T09:53:41;1.00;82.70
76936;DHT22;65881;52.438;16.744;2023-02-27T09:56:30;1.20;82.30
76936;DHT22;65881;52.438;16.744;2023-02-27T09:59:00;1.20;81.60
76936;DHT22;65881;52.438;16.744;2023-02-27T10:07:05;1.40;78.70
76936;DHT22;65881;52.438;16.744;2023-02-27T10:12:33;1.50;77.80
76936;DHT22;65881;52.438;16.744;2023-02-27T10:17:58;1.50;76.50
76936;DHT22;65881;52.438;16.744;2023-02-27T10:20:32;1.50;77.30
76936;DHT22;65881;52.438;16.744;2023-02-27T10:23:04;1.70;77.90
76936;DHT22;65881;52.438;16.744;2023-02-27T10:25:34;1.80;77.10
76936;DHT22;65881;52.438;16.744;2023-02-27T10:28:11;1.80;76.90
76936;DHT22;65881;52.438;16.744;2023-02-27T10:30:38;1.80;75.30
76936;DHT22;65881;52.438;16.744;2023-02-27T10:33:12;1.90;76.20
76936;DHT22;65881;52.438;16.744;2023-02-27T10:35:43;2.10;75.50
76936;DHT22;65881;52.438;16.744;2023-02-27T10:38:16;2.20;74.70
76936;DHT22;65881;52.438;16.744;2023-02-27T10:40:44;2.20;73.90
76936;DHT22;65881;52.438;16.744;2023-02-27T10:43:14;2.10;74.60
76936;DHT22;65881;52.438;16.744;2023-02-27T10:45:41;2.20;72.80
76936;DHT22;65881;52.438;16.744;2023-02-27T10:48:08;2.20;71.90
76936;DHT22;65881;52.438;16.744;2023-02-27T10:50:41;2.10;70.50
76936;DHT22;65881;52.438;16.744;2023-02-27T10:53:18;2.10;69.60
76936;DHT22;65881;52.438;16.744;2023-02-27T10:55:56;1.90;71.10
76936;DHT22;65881;52.438;16.744;2023-02-27T10:58:22;1.90;69.60
76936;DHT22;65881;52.438;16.744;2023-02-27T11:00:59;1.80;67.80
76936;DHT22;65881;52.438;16.744;2023-02-27T11:03:32;1.70;68.90
76936;DHT22;65881;52.438;16.744;2023-02-27T11:08:33;1.60;71.70
76936;DHT22;65881;52.438;16.744;2023-02-27T11:11:05;1.70;71.10
76936;DHT22;65881;52.438;16.744;2023-02-27T11:16:13;1.90;72.40
76936;DHT22;65881;52.438;16.744;2023-02-27T11:18:41;1.90;70.50
76936;DHT22;65881;52.438;16.744;2023-02-27T11:21:23;1.90;71.60
76936;DHT22;65881;52.438;16.744;2023-02-27T11:26:28;2.20;70.20
76936;DHT22;65881;52.438;16.744;2023-02-27T11:31:33;2.40;67.50
76936;DHT22;65881;52.438;16.744;2023-02-27T11:34:01;2.40;67.00
76936;DHT22;65881;52.438;16.744;2023-02-27T11:36:46;2.30;65.70
76936;DHT22;65881;52.438;16.744;2023-02-27T11:39:37;2.30;66.10
76936;DHT22;65881;52.438;16.744;2023-02-27T11:42:48;2.20;66.30
76936;DHT22;65881;52.438;16.744;2023-02-27T11:45:26;2.30;67.00
76936;DHT22;65881;52.438;16.744;2023-02-27T11:47:59;2.10;67.00
76936;DHT22;65881;52.438;16.744;2023-02-27T11:55:44;2.00;68.60
76936;DHT22;65881;52.438;16.744;2023-02-27T11:58:14;1.90;68.20
76936;DHT22;65881;52.438;16.744;2023-02-27T12:01:05;1.90;69.20
76936;DHT22;65881;52.438;16.744;2023-02-27T12:06:18;2.00;68.20
76936;DHT22;65881;52.438;16.744;2023-02-27T12:08:49;2.00;67.30
76936;DHT22;65881;52.438;16.744;2023-02-27T12:11:46;2.10;66.70
76936;DHT22;65881;52.438;16.744;2023-02-27T12:17:26;2.30;63.30
76936;DHT22;65881;52.438;16.744;2023-02-27T12:22:30;2.30;66.60
76936;DHT22;65881;52.438;16.744;2023-02-27T12:27:45;2.20;63.60
76936;DHT22;65881;52.438;16.744;2023-02-27T12:30:21;2.30;64.00
76936;DHT22;65881;52.438;16.744;2023-02-27T12:35:39;2.50;64.10
76936;DHT22;65881;52.438;16.744;2023-02-27T12:38:04;2.50;62.40
76936;DHT22;65881;52.438;16.744;2023-02-27T12:40:40;2.30;61.50
76936;DHT22;65881;52.438;16.744;2023-02-27T12:51:49;2.20;63.70
76936;DHT22;65881;52.438;16.744;2023-02-27T12:54:35;2.40;64.10
76936;DHT22;65881;52.438;16.744;2023-02-27T12:57:32;2.50;63.20
76936;DHT22;65881;52.438;16.744;2023-02-27T13:00:16;2.50;62.00
76936;DHT22;65881;52.438;16.744;2023-02-27T13:08:19;2.40;59.70
76936;DHT22;65881;52.438;16.744;2023-02-27T13:16:06;2.10;59.30
76936;DHT22;65881;52.438;16.744;2023-02-27T13:18:44;2.00;60.20
76936;DHT22;65881;52.438;16.744;2023-02-27T13:21:20;2.00;61.30
76936;DHT22;65881;52.438;16.744;2023-02-27T13:26:42;1.90;61.80
76936;DHT22;65881;52.438;16.744;2023-02-27T13:29:18;1.90;61.40
76936;DHT22;65881;52.438;16.744;2023-02-27T13:34:33;2.10;61.90
76936;DHT22;65881;52.438;16.744;2023-02-27T13:37:07;2.20;62.10
76936;DHT22;65881;52.438;16.744;2023-02-27T13:44:55;2.20;59.00
76936;DHT22;65881;52.438;16.744;2023-02-27T13:47:38;2.10;59.70
76936;DHT22;65881;52.438;16.744;2023-02-27T13:52:43;2.20;61.30
76936;DHT22;65881;52.438;16.744;2023-02-27T13:55:44;2.20;61.50
76936;DHT22;65881;52.438;16.744;2023-02-27T13:58:16;2.30;62.10
76936;DHT22;65881;52.438;16.744;2023-02-27T14:00:54;2.20;60.50
76936;DHT22;65881;52.438;16.744;2023-02-27T14:03:24;2.20;60.10
76936;DHT22;65881;52.438;16.744;2023-02-27T14:05:52;2.20;60.40
76936;DHT22;65881;52.438;16.744;2023-02-27T14:08:32;2.20;60.40
76936;DHT22;65881;52.438;16.744;2023-02-27T14:26:56;2.30;60.10
76936;DHT22;65881;52.438;16.744;2023-02-27T14:29:26;2.30;60.50
76936;DHT22;65881;52.438;16.744;2023-02-27T14:32:01;2.30;59.30
76936;DHT22;65881;52.438;16.744;2023-02-27T14:34:28;2.20;60.70
76936;DHT22;65881;52.438;16.744;2023-02-27T14:37:01;2.20;59.70
76936;DHT22;65881;52.438;16.744;2023-02-27T14:39:35;2.20;60.30
76936;DHT22;65881;52.438;16.744;2023-02-27T14:44:30;2.10;62.00
76936;DHT22;65881;52.438;16.744;2023-02-27T14:47:02;2.10;62.30
76936;DHT22;65881;52.438;16.744;2023-02-27T14:49:30;2.10;61.90
76936;DHT22;65881;52.438;16.744;2023-02-27T14:52:19;2.00;60.90
76936;DHT22;65881;52.438;16.744;2023-02-27T14:54:45;2.00;61.00
76936;DHT22;65881;52.438;16.744;2023-02-27T14:57:24;2.00;64.10
76936;DHT22;65881;52.438;16.744;2023-02-27T14:59:53;1.90;61.50
76936;DHT22;65881;52.438;16.744;2023-02-27T15:02:24;1.90;62.10
76936;DHT22;65881;52.438;16.744;2023-02-27T15:05:11;1.90;62.60
76936;DHT22;65881;52.438;16.744;2023-02-27T15:07:38;1.90;63.90
76936;DHT22;65881;52.438;16.744;2023-02-27T15:10:07;1.90;64.00
76936;DHT22;65881;52.438;16.744;2023-02-27T15:12:37;1.80;63.70
76936;DHT22;65881;52.438;16.744;2023-02-27T15:15:04;1.70;62.40
76936;DHT22;65881;52.438;16.744;2023-02-27T15:17:42;1.70;63.90
76936;DHT22;65881;52.438;16.744;2023-02-27T15:20:28;1.70;64.90
76936;DHT22;65881;52.438;16.744;2023-02-27T15:23:00;1.70;65.40
76936;DHT22;65881;52.438;16.744;2023-02-27T15:25:56;1.70;64.70
76936;DHT22;65881;52.438;16.744;2023-02-27T15:28:39;1.70;64.10
76936;DHT22;65881;52.438;16.744;2023-02-27T15:31:11;1.70;63.40
76936;DHT22;65881;52.438;16.744;2023-02-27T15:33:43;1.60;63.80
76936;DHT22;65881;52.438;16.744;2023-02-27T15:36:20;1.60;64.30
76936;DHT22;65881;52.438;16.744;2023-02-27T15:41:37;1.60;65.70
76936;DHT22;65881;52.438;16.744;2023-02-27T15:44:04;1.60;66.60
76936;DHT22;65881;52.438;16.744;2023-02-27T15:46:31;1.60;66.60
76936;DHT22;65881;52.438;16.744;2023-02-27T15:48:58;1.50;66.60
76936;DHT22;65881;52.438;16.744;2023-02-27T15:51:25;1.50;66.80
76936;DHT22;65881;52.438;16.744;2023-02-27T15:53:53;1.50;66.80
76936;DHT22;65881;52.438;16.744;2023-02-27T15:56:27;1.40;67.10
76936;DHT22;65881;52.438;16.744;2023-02-27T15:58:54;1.40;67.60
76936;DHT22;65881;52.438;16.744;2023-02-27T16:01:24;1.40;67.50
76936;DHT22;65881;52.438;16.744;2023-02-27T16:03:54;1.40;67.70
76936;DHT22;65881;52.438;16.744;2023-02-27T16:06:30;1.40;67.80
76936;DHT22;65881;52.438;16.744;2023-02-27T16:08:59;1.40;67.80
76936;DHT22;65881;52.438;16.744;2023-02-27T16:15:26;1.30;68.40
76936;DHT22;65881;52.438;16.744;2023-02-27T16:18:01;1.20;67.80
76936;DHT22;65881;52.438;16.744;2023-02-27T16:20:41;1.20;68.20
76936;DHT22;65881;52.438;16.744;2023-02-27T16:23:25;1.20;66.80
76936;DHT22;65881;52.438;16.744;2023-02-27T16:28:41;1.20;66.10
76936;DHT22;65881;52.438;16.744;2023-02-27T16:31:25;1.20;66.90
76936;DHT22;65881;52.438;16.744;2023-02-27T16:33:54;1.10;66.50
76936;DHT22;65881;52.438;16.744;2023-02-27T16:36:26;1.10;66.40
76936;DHT22;65881;52.438;16.744;2023-02-27T16:38:52;1.10;66.60
76936;DHT22;65881;52.438;16.744;2023-02-27T16:41:19;1.00;67.10
76936;DHT22;65881;52.438;16.744;2023-02-27T16:43:46;1.10;66.40
76936;DHT22;65881;52.438;16.744;2023-02-27T16:46:14;1.00;66.60
76936;DHT22;65881;52.438;16.744;2023-02-27T16:48:45;1.00;66.40
76936;DHT22;65881;52.438;16.744;2023-02-27T16:51:16;1.00;66.70
76936;DHT22;65881;52.438;16.744;2023-02-27T16:53:42;1.00;66.50
76936;DHT22;65881;52.438;16.744;2023-02-27T16:56:10;1.00;66.80
76936;DHT22;65881;52.438;16.744;2023-02-27T16:58:36;1.00;66.10
76936;DHT22;65881;52.438;16.744;2023-02-27T17:01:02;1.00;66.50
76936;DHT22;65881;52.438;16.744;2023-02-27T17:03:28;1.00;66.70
76936;DHT22;65881;52.438;16.744;2023-02-27T17:05:54;1.00;66.70
76936;DHT22;65881;52.438;16.744;2023-02-27T17:08:22;1.00;66.60
76936;DHT22;65881;52.438;16.744;2023-02-27T17:10:48;0.90;67.10
76936;DHT22;65881;52.438;16.744;2023-02-27T17:13:14;0.90;67.10
76936;DHT22;65881;52.438;16.744;2023-02-27T17:15:43;0.80;66.90
76936;DHT22;65881;52.438;16.744;2023-02-27T17:18:14;0.80;67.60
76936;DHT22;65881;52.438;16.744;2023-02-27T17:20:43;0.80;67.80
76936;DHT22;65881;52.438;16.744;2023-02-27T17:23:10;0.80;68.10
76936;DHT22;65881;52.438;16.744;2023-02-27T17:25:36;0.80;68.60
76936;DHT22;65881;52.438;16.744;2023-02-27T17:28:06;0.80;68.70
76936;DHT22;65881;52.438;16.744;2023-02-27T17:30:33;0.80;69.00
76936;DHT22;65881;52.438;16.744;2023-02-27T17:32:58;0.80;68.70
76936;DHT22;65881;52.438;16.744;2023-02-27T17:35:24;0.80;68.90
76936;DHT22;65881;52.438;16.744;2023-02-27T17:37:50;0.70;68.50
76936;DHT22;65881;52.438;16.744;2023-02-27T17:40:16;0.60;69.60
76936;DHT22;65881;52.438;16.744;2023-02-27T17:42:42;0.60;70.70
76936;DHT22;65881;52.438;16.744;2023-02-27T17:45:08;0.60;69.80
76936;DHT22;65881;52.438;16.744;2023-02-27T17:47:34;0.60;68.90
76936;DHT22;65881;52.438;16.744;2023-02-27T17:50:00;0.50;68.90
76936;DHT22;65881;52.438;16.744;2023-02-27T17:52:27;0.50;69.40
76936;DHT22;65881;52.438;16.744;2023-02-27T17:54:52;0.40;69.80
76936;DHT22;65881;52.438;16.744;2023-02-27T17:57:18;0.30;70.50
76936;DHT22;65881;52.438;16.744;2023-02-27T17:59:44;0.20;71.70
76936;DHT22;65881;52.438;16.744;2023-02-27T18:02:11;0.20;72.40
76936;DHT22;65881;52.438;16.744;2023-02-27T18:04:37;0.10;72.90
76936;DHT22;65881;52.438;16.744;2023-02-27T18:07:03;0.00;72.80
76936;DHT22;65881;52.438;16.744;2023-02-27T18:09:28;0.00;72.50
76936;DHT22;65881;52.438;16.744;2023-02-27T18:11:54;0.00;71.50
76936;DHT22;65881;52.438;16.744;2023-02-27T18:14:20;0.00;71.60
76936;DHT22;65881;52.438;16.744;2023-02-27T18:16:46;-0.10;71.60
76936;DHT22;65881;52.438;16.744;2023-02-27T18:19:12;-0.10;71.60
76936;DHT22;65881;52.438;16.744;2023-02-27T18:21:38;-0.10;73.20
76936;DHT22;65881;52.438;16.744;2023-02-27T18:24:04;-0.10;73.60
76936;DHT22;65881;52.438;16.744;2023-02-27T18:26:31;-0.20;74.10
76936;DHT22;65881;52.438;16.744;2023-02-27T18:29:05;-0.30;73.50
76936;DHT22;65881;52.438;16.744;2023-02-27T18:31:35;-0.40;73.20
76936;DHT22;65881;52.438;16.744;2023-02-27T18:34:02;-0.40;73.10
76936;DHT22;65881;52.438;16.744;2023-02-27T18:36:29;-0.50;73.00
76936;DHT22;65881;52.438;16.744;2023-02-27T18:38:55;-0.60;73.10
76936;DHT22;65881;52.438;16.744;2023-02-27T18:41:20;-0.60;73.60